sensor_id;sensor_type;location;lat;lon;timestamp;temperature;humidity
52016;DHT22;38032;53.326;6.472;2023-03-19T00:01:13;10.70;99.90
52016;DHT22;38032;53.326;6.472;2023-03-19T00:03:39;10.10;99.90
52016;DHT22;38032;53.326;6.472;2023-03-19T00:06:05;10.70;99.90
52016;DHT22;38032;53.326;6.472;2023-03-19T00:08:31;10.70;99.90
52016;DHT22;38032;53.326;6.472;2023-03-19T00:10:57;10.70;99.90
52016;DHT22;38032;53.326;6.472;2023-03-19T00:13:22;10.70;99.90
52016;DHT22;38032;53.326;6.472;2023-03-19T00:15:48;10.80;99.90
52016;DHT22;38032;53.326;6.472;2023-03-19T00:18:15;10.70;99.90
52016;DHT22;38032;53.326;6.472;2023-03-19T00:20:41;10.70;99.90
52016;DHT22;38032;53.326;6.472;2023-03-19T00:23:07;10.70;99.90
52016;DHT22;38032;53.326;6.472;2023-03-19T00:25:33;10.80;99.90
52016;DHT22;38032;53.326;6.472;2023-03-19T00:27:59;10.80;99.90
52016;DHT22;38032;53.326;6.472;2023-03-19T00:30:25;10.80;99.90
52016;DHT22;38032;53.326;6.472;2023-03-19T00:32:51;10.80;99.90
52016;DHT22;38032;53.326;6.472;2023-03-19T00:35:17;10.80;99.90
52016;DHT22;38032;53.326;6.472;2023-03-19T00:37:43;10.80;99.90
52016;DHT22;38032;53.326;6.472;2023-03-19T00:40:10;10.80;99.90
52016;DHT22;38032;53.326;6.472;2023-03-19T00:42:36;10.80;99.90
52016;DHT22;38032;53.326;6.472;2023-03-19T00:45:02;10.80;99.90
52016;DHT22;38032;53.326;6.472;2023-03-19T00:47:28;10.80;99.90
52016;DHT22;38032;53.326;6.472;2023-03-19T00:49:54;10.70;99.90
52016;DHT22;38032;53.326;6.472;2023-03-19T00:52:20;10.70;99.90
52016;DHT22;38032;53.326;6.472;2023-03-19T00:54:46;10.70;99.90
52016;DHT22;38032;53.326;6.472;2023-03-19T00:57:12;10.70;99.90
52016;DHT22;38032;53.326;6.472;2023-03-19T00:59:37;10.70;99.90
52016;DHT22;38032;53.326;6.472;2023-03-19T01:02:03;10.60;99.90
52016;DHT22;38032;53.326;6.472;2023-03-19T01:04:30;10.60;99.90
52016;DHT22;38032;53.326;6.472;2023-03-19T01:06:55;10.60;99.90
52016;DHT22;38032;53.326;6.472;2023-03-19T01:09:23;10.60;99.90
52016;DHT22;38032;53.326;6.472;2023-03-19T01:11:48;10.60;99.90
52016;DHT22;38032;53.326;6.472;2023-03-19T01:14:15;10.60;99.90
52016;DHT22;38032;53.326;6.472;2023-03-19T01:16:41;10.60;99.90
52016;DHT22;38032;53.326;6.472;2023-03-19T01:19:08;10.50;99.90
52016;DHT22;38032;53.326;6.472;2023-03-19T01:21:34;10.50;99.90
52016;DHT22;38032;53.326;6.472;2023-03-19T01:24:01;10.50;99.90
52016;DHT22;38032;53.326;6.472;2023-03-19T01:26:27;10.60;99.90
52016;DHT22;38032;53.326;6.472;2023-03-19T01:28:53;10.60;99.90
52016;DHT22;38032;53.326;6.472;2023-03-19T01:31:19;10.60;99.90
52016;DHT22;38032;53.326;6.472;2023-03-19T01:33:44;10.60;99.90
52016;DHT22;38032;53.326;6.472;2023-03-19T01:36:11;10.60;99.90
52016;DHT22;38032;53.326;6.472;2023-03-19T01:38:37;10.60;99.90
52016;DHT22;38032;53.326;6.472;2023-03-19T01:41:02;10.70;99.90
52016;DHT22;38032;53.326;6.472;2023-03-19T01:43:30;10.70;99.90
52016;DHT22;38032;53.326;6.472;2023-03-19T01:46:00;10.70;99.90
52016;DHT22;38032;53.326;6.472;2023-03-19T01:50:59;10.70;99.90
52016;DHT22;38032;53.326;6.472;2023-03-19T01:53:28;10.70;99.90
52016;DHT22;38032;53.326;6.472;2023-03-19T01:56:02;10.70;99.90
52016;DHT22;38032;53.326;6.472;2023-03-19T01:58:29;10.70;99.90
52016;DHT22;38032;53.326;6.472;2023-03-19T02:00:56;10.70;99.90
52016;DHT22;38032;53.326;6.472;2023-03-19T02:03:23;10.70;99.90
52016;DHT22;38032;53.326;6.472;2023-03-19T02:05:50;10.70;99.90
52016;DHT22;38032;53.326;6.472;2023-03-19T02:08:18;10.70;99.90
52016;DHT22;38032;53.326;6.472;2023-03-19T02:10:46;10.70;99.90
52016;DHT22;38032;53.326;6.472;2023-03-19T02:13:12;10.70;99.90
52016;DHT22;38032;53.326;6.472;2023-03-19T02:15:39;10.70;99.90
52016;DHT22;38032;53.326;6.472;2023-03-19T02:18:05;10.70;99.90
52016;DHT22;38032;53.326;6.472;2023-03-19T02:20:38;10.70;99.90
52016;DHT22;38032;53.326;6.472;2023-03-19T02:23:10;10.70;99.90
52016;DHT22;38032;53.326;6.472;2023-03-19T02:28:14;10.70;99.90
52016;DHT22;38032;53.326;6.472;2023-03-19T02:30:42;10.70;99.90
52016;DHT22;38032;53.326;6.472;2023-03-19T02:33:13;10.70;99.90
52016;DHT22;38032;53.326;6.472;2023-03-19T02:35:41;10.70;99.90
52016;DHT22;38032;53.326;6.472;2023-03-19T02:38:08;10.70;99.90
52016;DHT22;38032;53.326;6.472;2023-03-19T02:40:40;10.70;99.90
52016;DHT22;38032;53.326;6.472;2023-03-19T02:43:07;10.70;99.90
52016;DHT22;38032;53.326;6.472;2023-03-19T02:45:33;10.70;99.90
52016;DHT22;38032;53.326;6.472;2023-03-19T02:47:59;10.70;99.90
52016;DHT22;38032;53.326;6.472;2023-03-19T02:50:26;10.80;99.90
52016;DHT22;38032;53.326;6.472;2023-03-19T02:52:52;10.80;99.90
52016;DHT22;38032;53.326;6.472;2023-03-19T02:55:18;10.80;99.90
52016;DHT22;38032;53.326;6.472;2023-03-19T02:57:44;10.80;99.90
52016;DHT22;38032;53.326;6.472;2023-03-19T03:00:11;10.80;99.90
52016;DHT22;38032;53.326;6.472;2023-03-19T03:02:37;10.90;99.90
52016;DHT22;38032;53.326;6.472;2023-03-19T03:05:05;10.90;99.90
52016;DHT22;38032;53.326;6.472;2023-03-19T03:07:31;10.80;99.90
52016;DHT22;38032;53.326;6.472;2023-03-19T03:09:57;10.80;99.90
52016;DHT22;38032;53.326;6.472;2023-03-19T03:12:24;10.80;99.90
52016;DHT22;38032;53.326;6.472;2023-03-19T03:14:50;10.80;99.90
52016;DHT22;38032;53.326;6.472;2023-03-19T03:17:15;10.80;99.90
52016;DHT22;38032;53.326;6.472;2023-03-19T03:19:41;10.80;99.90
52016;DHT22;38032;53.326;6.472;2023-03-19T03:22:07;10.80;99.90
52016;DHT22;38032;53.326;6.472;2023-03-19T03:24:33;10.70;99.90
52016;DHT22;38032;53.326;6.472;2023-03-19T03:26:59;10.70;99.90
52016;DHT22;38032;53.326;6.472;2023-03-19T03:29:25;10.70;99.90
52016;DHT22;38032;53.326;6.472;2023-03-19T03:31:51;10.70;99.90
52016;DHT22;38032;53.326;6.472;2023-03-19T03:34:17;10.70;99.90
52016;DHT22;38032;53.326;6.472;2023-03-19T03:36:43;10.70;99.90
52016;DHT22;38032;53.326;6.472;2023-03-19T03:39:11;10.70;99.90
52016;DHT22;38032;53.326;6.472;2023-03-19T03:41:38;10.70;99.90
52016;DHT22;38032;53.326;6.472;2023-03-19T03:44:04;10.70;99.90
52016;DHT22;38032;53.326;6.472;2023-03-19T03:46:30;10.70;99.90
52016;DHT22;38032;53.326;6.472;2023-03-19T03:48:56;10.70;99.90
52016;DHT22;38032;53.326;6.472;2023-03-19T03:51:22;10.60;99.90
52016;DHT22;38032;53.326;6.472;2023-03-19T03:53:47;10.60;99.90
52016;DHT22;38032;53.326;6.472;2023-03-19T03:56:13;10.70;99.90
52016;DHT22;38032;53.326;6.472;2023-03-19T03:58:39;10.70;99.90
52016;DHT22;38032;53.326;6.472;2023-03-19T04:01:06;10.70;99.90
52016;DHT22;38032;53.326;6.472;2023-03-19T04:03:33;10.70;99.90
52016;DHT22;38032;53.326;6.472;2023-03-19T04:05:59;10.80;99.90
52016;DHT22;38032;53.326;6.472;2023-03-19T04:08:25;10.80;99.90
52016;DHT22;38032;53.326;6.472;2023-03-19T04:10:51;10.80;99.90
52016;DHT22;38032;53.326;6.472;2023-03-19T04:13:16;10.80;99.90
52016;DHT22;38032;53.326;6.472;2023-03-19T04:15:43;10.80;99.90
52016;DHT22;38032;53.326;6.472;2023-03-19T04:18:09;10.90;99.90
52016;DHT22;38032;53.326;6.472;2023-03-19T04:20:35;10.80;99.90
52016;DHT22;38032;53.326;6.472;2023-03-19T04:23:01;10.90;99.90
52016;DHT22;38032;53.326;6.472;2023-03-19T04:25:27;10.90;99.90
52016;DHT22;38032;53.326;6.472;2023-03-19T04:27:56;10.90;99.90
52016;DHT22;38032;53.326;6.472;2023-03-19T04:30:22;10.90;99.90
52016;DHT22;38032;53.326;6.472;2023-03-19T04:32:48;11.00;99.90
52016;DHT22;38032;53.326;6.472;2023-03-19T04:35:14;10.90;99.90
52016;DHT22;38032;53.326;6.472;2023-03-19T04:37:40;11.00;99.90
52016;DHT22;38032;53.326;6.472;2023-03-19T04:40:08;10.90;99.90
52016;DHT22;38032;53.326;6.472;2023-03-19T04:42:34;10.90;99.90
52016;DHT22;38032;53.326;6.472;2023-03-19T04:45:00;10.90;99.90
52016;DHT22;38032;53.326;6.472;2023-03-19T04:47:26;10.90;99.90
52016;DHT22;38032;53.326;6.472;2023-03-19T04:49:52;10.90;99.90
52016;DHT22;38032;53.326;6.472;2023-03-19T04:52:17;10.90;99.90
52016;DHT22;38032;53.326;6.472;2023-03-19T04:54:43;10.90;99.90
52016;DHT22;38032;53.326;6.472;2023-03-19T04:57:09;10.90;99.90
52016;DHT22;38032;53.326;6.472;2023-03-19T04:59:35;10.90;99.90
52016;DHT22;38032;53.326;6.472;2023-03-19T05:02:01;8.50;99.90
52016;DHT22;38032;53.326;6.472;2023-03-19T05:04:27;10.90;99.90
52016;DHT22;38032;53.326;6.472;2023-03-19T05:06:53;10.90;99.90
52016;DHT22;38032;53.326;6.472;2023-03-19T05:09:19;10.90;99.90
52016;DHT22;38032;53.326;6.472;2023-03-19T05:11:45;10.90;99.90
52016;DHT22;38032;53.326;6.472;2023-03-19T05:14:11;10.90;99.90
52016;DHT22;38032;53.326;6.472;2023-03-19T05:16:37;10.90;99.90
52016;DHT22;38032;53.326;6.472;2023-03-19T05:19:03;10.80;99.90
52016;DHT22;38032;53.326;6.472;2023-03-19T05:21:29;10.80;99.90
52016;DHT22;38032;53.326;6.472;2023-03-19T05:23:55;10.80;99.90
52016;DHT22;38032;53.326;6.472;2023-03-19T05:26:22;10.80;99.90
52016;DHT22;38032;53.326;6.472;2023-03-19T05:28:47;10.80;99.90
52016;DHT22;38032;53.326;6.472;2023-03-19T05:31:13;10.70;99.90
52016;DHT22;38032;53.326;6.472;2023-03-19T05:33:39;10.70;99.90
52016;DHT22;38032;53.326;6.472;2023-03-19T05:36:06;10.70;99.90
52016;DHT22;38032;53.326;6.472;2023-03-19T05:38:32;10.70;99.90
52016;DHT22;38032;53.326;6.472;2023-03-19T05:41:03;10.60;99.90
52016;DHT22;38032;53.326;6.472;2023-03-19T05:43:29;10.60;99.90
52016;DHT22;38032;53.326;6.472;2023-03-19T05:45:55;10.60;99.90
52016;DHT22;38032;53.326;6.472;2023-03-19T05:48:21;10.60;99.90
52016;DHT22;38032;53.326;6.472;2023-03-19T05:50:48;10.60;99.90
52016;DHT22;38032;53.326;6.472;2023-03-19T05:53:13;10.60;99.90
52016;DHT22;38032;53.326;6.472;2023-03-19T05:55:39;10.50;99.90
52016;DHT22;38032;53.326;6.472;2023-03-19T05:58:06;10.50;99.90
52016;DHT22;38032;53.326;6.472;2023-03-19T06:00:32;10.50;99.90
52016;DHT22;38032;53.326;6.472;2023-03-19T06:02:58;10.40;99.90
52016;DHT22;38032;53.326;6.472;2023-03-19T06:05:24;10.40;99.90
52016;DHT22;38032;53.326;6.472;2023-03-19T06:07:50;10.30;99.90
52016;DHT22;38032;53.326;6.472;2023-03-19T06:10:16;10.30;99.90
52016;DHT22;38032;53.326;6.472;2023-03-19T06:12:42;10.20;99.90
52016;DHT22;38032;53.326;6.472;2023-03-19T06:15:08;10.20;99.90
52016;DHT22;38032;53.326;6.472;2023-03-19T06:17:35;10.20;99.90
52016;DHT22;38032;53.326;6.472;2023-03-19T06:20:01;10.20;99.90
52016;DHT22;38032;53.326;6.472;2023-03-19T06:22:27;10.30;99.90
52016;DHT22;38032;53.326;6.472;2023-03-19T06:24:53;10.30;99.90
52016;DHT22;38032;53.326;6.472;2023-03-19T06:27:19;10.40;99.90
52016;DHT22;38032;53.326;6.472;2023-03-19T06:29:45;10.40;99.90
52016;DHT22;38032;53.326;6.472;2023-03-19T06:32:11;10.50;99.90
52016;DHT22;38032;53.326;6.472;2023-03-19T06:34:37;10.60;99.90
52016;DHT22;38032;53.326;6.472;2023-03-19T06:37:03;10.70;99.90
52016;DHT22;38032;53.326;6.472;2023-03-19T06:39:29;10.70;99.90
52016;DHT22;38032;53.326;6.472;2023-03-19T06:41:55;10.80;99.90
52016;DHT22;38032;53.326;6.472;2023-03-19T06:44:20;10.80;99.90
52016;DHT22;38032;53.326;6.472;2023-03-19T06:46:46;10.90;99.90
52016;DHT22;38032;53.326;6.472;2023-03-19T06:49:12;11.00;99.90
52016;DHT22;38032;53.326;6.472;2023-03-19T06:51:38;11.00;99.90
52016;DHT22;38032;53.326;6.472;2023-03-19T06:54:04;11.10;99.90
52016;DHT22;38032;53.326;6.472;2023-03-19T06:56:30;11.10;99.90
52016;DHT22;38032;53.326;6.472;2023-03-19T06:58:56;11.10;99.90
52016;DHT22;38032;53.326;6.472;2023-03-19T07:01:22;11.10;99.90
52016;DHT22;38032;53.326;6.472;2023-03-19T07:03:48;11.10;99.90
52016;DHT22;38032;53.326;6.472;2023-03-19T07:06:14;11.20;99.90
52016;DHT22;38032;53.326;6.472;2023-03-19T07:08:40;11.30;99.90
52016;DHT22;38032;53.326;6.472;2023-03-19T07:11:11;11.40;99.90
52016;DHT22;38032;53.326;6.472;2023-03-19T07:13:37;11.50;99.90
52016;DHT22;38032;53.326;6.472;2023-03-19T07:16:03;11.60;99.90
52016;DHT22;38032;53.326;6.472;2023-03-19T07:18:29;11.70;99.90
52016;DHT22;38032;53.326;6.472;2023-03-19T07:20:55;11.90;99.90
52016;DHT22;38032;53.326;6.472;2023-03-19T07:23:21;12.00;99.90
52016;DHT22;38032;53.326;6.472;2023-03-19T07:25:47;12.00;99.90
52016;DHT22;38032;53.326;6.472;2023-03-19T07:28:13;12.30;99.90
52016;DHT22;38032;53.326;6.472;2023-03-19T07:30:39;12.70;99.90
52016;DHT22;38032;53.326;6.472;2023-03-19T07:33:06;13.10;99.90
52016;DHT22;38032;53.326;6.472;2023-03-19T07:35:33;13.40;99.90
52016;DHT22;38032;53.326;6.472;2023-03-19T07:37:59;13.40;99.90
52016;DHT22;38032;53.326;6.472;2023-03-19T07:40:25;13.50;99.90
52016;DHT22;38032;53.326;6.472;2023-03-19T07:42:51;13.80;99.90
52016;DHT22;38032;53.326;6.472;2023-03-19T07:45:18;14.00;99.90
52016;DHT22;38032;53.326;6.472;2023-03-19T07:47:43;14.30;99.90
52016;DHT22;38032;53.326;6.472;2023-03-19T07:50:10;14.50;99.90
52016;DHT22;38032;53.326;6.472;2023-03-19T07:52:36;14.60;99.90
52016;DHT22;38032;53.326;6.472;2023-03-19T07:55:02;14.70;99.90
52016;DHT22;38032;53.326;6.472;2023-03-19T07:57:28;14.80;99.90
52016;DHT22;38032;53.326;6.472;2023-03-19T07:59:53;14.80;99.90
52016;DHT22;38032;53.326;6.472;2023-03-19T08:02:19;14.80;99.90
52016;DHT22;38032;53.326;6.472;2023-03-19T08:04:45;14.90;99.90
52016;DHT22;38032;53.326;6.472;2023-03-19T08:07:11;15.20;99.90
52016;DHT22;38032;53.326;6.472;2023-03-19T08:09:39;15.60;99.90
52016;DHT22;38032;53.326;6.472;2023-03-19T08:12:06;16.00;99.90
52016;DHT22;38032;53.326;6.472;2023-03-19T08:14:33;16.40;99.90
52016;DHT22;38032;53.326;6.472;2023-03-19T08:16:59;16.80;99.90
52016;DHT22;38032;53.326;6.472;2023-03-19T08:19:25;16.80;99.90
52016;DHT22;38032;53.326;6.472;2023-03-19T08:21:51;16.60;99.90
52016;DHT22;38032;53.326;6.472;2023-03-19T08:24:17;16.40;99.90
52016;DHT22;38032;53.326;6.472;2023-03-19T08:26:44;16.00;99.90
52016;DHT22;38032;53.326;6.472;2023-03-19T08:29:11;15.90;99.90
52016;DHT22;38032;53.326;6.472;2023-03-19T08:31:37;15.80;99.90
52016;DHT22;38032;53.326;6.472;2023-03-19T08:34:03;15.80;99.90
52016;DHT22;38032;53.326;6.472;2023-03-19T08:36:30;15.70;99.90
52016;DHT22;38032;53.326;6.472;2023-03-19T08:38:56;15.70;99.90
52016;DHT22;38032;53.326;6.472;2023-03-19T08:41:24;15.70;99.90
52016;DHT22;38032;53.326;6.472;2023-03-19T08:43:50;15.60;99.90
52016;DHT22;38032;53.326;6.472;2023-03-19T08:46:16;15.40;99.90
52016;DHT22;38032;53.326;6.472;2023-03-19T08:48:42;15.30;99.90
52016;DHT22;38032;53.326;6.472;2023-03-19T08:51:09;15.30;99.90
52016;DHT22;38032;53.326;6.472;2023-03-19T08:53:36;15.40;99.90
52016;DHT22;38032;53.326;6.472;2023-03-19T08:56:04;16.00;99.90
52016;DHT22;38032;53.326;6.472;2023-03-19T08:58:31;16.50;99.90
52016;DHT22;38032;53.326;6.472;2023-03-19T09:01:03;16.70;99.90
52016;DHT22;38032;53.326;6.472;2023-03-19T09:03:29;17.00;99.90
52016;DHT22;38032;53.326;6.472;2023-03-19T09:06:01;17.10;99.90
52016;DHT22;38032;53.326;6.472;2023-03-19T09:08:28;17.10;99.90
52016;DHT22;38032;53.326;6.472;2023-03-19T09:10:55;17.00;99.90
52016;DHT22;38032;53.326;6.472;2023-03-19T09:13:21;16.90;99.90
52016;DHT22;38032;53.326;6.472;2023-03-19T09:15:49;16.60;99.90
52016;DHT22;38032;53.326;6.472;2023-03-19T09:18:15;16.60;99.90
52016;DHT22;38032;53.326;6.472;2023-03-19T09:20:42;16.40;99.90
52016;DHT22;38032;53.326;6.472;2023-03-19T09:23:08;16.30;99.90
52016;DHT22;38032;53.326;6.472;2023-03-19T09:25:34;16.10;99.90
52016;DHT22;38032;53.326;6.472;2023-03-19T09:28:00;16.00;99.90
52016;DHT22;38032;53.326;6.472;2023-03-19T09:30:26;15.90;99.90
52016;DHT22;38032;53.326;6.472;2023-03-19T09:32:52;15.80;99.90
52016;DHT22;38032;53.326;6.472;2023-03-19T09:35:18;15.70;99.90
52016;DHT22;38032;53.326;6.472;2023-03-19T09:37:43;15.70;99.90
52016;DHT22;38032;53.326;6.472;2023-03-19T09:40:20;15.70;99.90
52016;DHT22;38032;53.326;6.472;2023-03-19T09:43:29;15.70;99.90
52016;DHT22;38032;53.326;6.472;2023-03-19T09:45:41;15.70;99.90
52016;DHT22;38032;53.326;6.472;2023-03-19T09:48:15;15.80;99.90
52016;DHT22;38032;53.326;6.472;2023-03-19T09:50:45;15.90;99.90
52016;DHT22;38032;53.326;6.472;2023-03-19T09:53:44;15.80;99.90
52016;DHT22;38032;53.326;6.472;2023-03-19T09:56:14;15.70;99.90
52016;DHT22;38032;53.326;6.472;2023-03-19T09:58:41;15.60;99.90
52016;DHT22;38032;53.326;6.472;2023-03-19T10:01:24;15.50;99.90
52016;DHT22;38032;53.326;6.472;2023-03-19T10:06:41;15.30;99.90
52016;DHT22;38032;53.326;6.472;2023-03-19T10:12:07;15.20;99.90
52016;DHT22;38032;53.326;6.472;2023-03-19T10:15:00;15.20;99.90
52016;DHT22;38032;53.326;6.472;2023-03-19T10:17:34;15.10;99.90
52016;DHT22;38032;53.326;6.472;2023-03-19T10:20:07;15.10;99.90
52016;DHT22;38032;53.326;6.472;2023-03-19T10:22:40;15.10;99.90
52016;DHT22;38032;53.326;6.472;2023-03-19T10:25:12;15.00;99.90
52016;DHT22;38032;53.326;6.472;2023-03-19T10:27:42;15.00;99.90
52016;DHT22;38032;53.326;6.472;2023-03-19T10:30:27;14.90;99.90
52016;DHT22;38032;53.326;6.472;2023-03-19T10:33:13;14.90;99.90
52016;DHT22;38032;53.326;6.472;2023-03-19T10:35:43;14.90;99.90
52016;DHT22;38032;53.326;6.472;2023-03-19T10:38:19;14.90;99.90
52016;DHT22;38032;53.326;6.472;2023-03-19T10:43:39;14.80;99.90
52016;DHT22;38032;53.326;6.472;2023-03-19T10:46:11;14.80;99.90
52016;DHT22;38032;53.326;6.472;2023-03-19T10:48:43;14.90;99.90
52016;DHT22;38032;53.326;6.472;2023-03-19T10:51:13;14.90;99.90
52016;DHT22;38032;53.326;6.472;2023-03-19T10:53:40;14.80;99.90
52016;DHT22;38032;53.326;6.472;2023-03-19T10:56:21;14.80;99.90
52016;DHT22;38032;53.326;6.472;2023-03-19T10:58:58;14.80;99.90
52016;DHT22;38032;53.326;6.472;2023-03-19T11:01:35;14.80;99.90
52016;DHT22;38032;53.326;6.472;2023-03-19T11:04:12;14.80;99.90
52016;DHT22;38032;53.326;6.472;2023-03-19T11:06:39;14.70;99.90
52016;DHT22;38032;53.326;6.472;2023-03-19T11:11:34;14.60;99.90
52016;DHT22;38032;53.326;6.472;2023-03-19T11:14:07;14.70;99.90
52016;DHT22;38032;53.326;6.472;2023-03-19T11:16:47;14.70;99.90
52016;DHT22;38032;53.326;6.472;2023-03-19T11:19:20;14.70;99.90
52016;DHT22;38032;53.326;6.472;2023-03-19T11:22:00;14.80;99.90
52016;DHT22;38032;53.326;6.472;2023-03-19T11:24:29;14.80;99.90
52016;DHT22;38032;53.326;6.472;2023-03-19T11:26:56;14.70;99.90
52016;DHT22;38032;53.326;6.472;2023-03-19T11:29:26;14.70;99.90
52016;DHT22;38032;53.326;6.472;2023-03-19T11:32:20;14.70;99.90
52016;DHT22;38032;53.326;6.472;2023-03-19T11:34:55;14.80;99.90
52016;DHT22;38032;53.326;6.472;2023-03-19T11:37:29;14.80;99.90
52016;DHT22;38032;53.326;6.472;2023-03-19T11:42:55;14.70;99.90
52016;DHT22;38032;53.326;6.472;2023-03-19T11:48:15;14.70;99.90
52016;DHT22;38032;53.326;6.472;2023-03-19T11:50:56;14.60;99.90
52016;DHT22;38032;53.326;6.472;2023-03-19T11:53:26;14.60;99.90
52016;DHT22;38032;53.326;6.472;2023-03-19T11:56:01;14.60;99.90
52016;DHT22;38032;53.326;6.472;2023-03-19T11:58:42;14.60;99.90
52016;DHT22;38032;53.326;6.472;2023-03-19T12:04:00;14.40;99.90
52016;DHT22;38032;53.326;6.472;2023-03-19T12:06:40;14.30;99.90
52016;DHT22;38032;53.326;6.472;2023-03-19T12:09:16;14.20;99.90
52016;DHT22;38032;53.326;6.472;2023-03-19T12:11:52;14.20;99.90
52016;DHT22;38032;53.326;6.472;2023-03-19T12:14:27;14.20;99.90
52016;DHT22;38032;53.326;6.472;2023-03-19T12:17:06;14.20;99.90
52016;DHT22;38032;53.326;6.472;2023-03-19T12:25:36;14.00;99.90
52016;DHT22;38032;53.326;6.472;2023-03-19T12:33:39;13.90;99.90
52016;DHT22;38032;53.326;6.472;2023-03-19T12:36:12;13.80;99.90
52016;DHT22;38032;53.326;6.472;2023-03-19T12:38:42;13.80;99.90
52016;DHT22;38032;53.326;6.472;2023-03-19T12:41:17;13.80;99.90
52016;DHT22;38032;53.326;6.472;2023-03-19T12:46:25;13.80;99.90
52016;DHT22;38032;53.326;6.472;2023-03-19T12:49:10;13.80;99.90
52016;DHT22;38032;53.326;6.472;2023-03-19T12:51:42;13.70;99.90
52016;DHT22;38032;53.326;6.472;2023-03-19T12:54:23;13.70;99.90
52016;DHT22;38032;53.326;6.472;2023-03-19T12:57:03;13.70;99.90
52016;DHT22;38032;53.326;6.472;2023-03-19T12:59:40;13.70;99.90
52016;DHT22;38032;53.326;6.472;2023-03-19T13:02:23;13.70;99.90
52016;DHT22;38032;53.326;6.472;2023-03-19T13:04:56;13.70;99.90
52016;DHT22;38032;53.326;6.472;2023-03-19T13:07:33;13.70;99.90
52016;DHT22;38032;53.326;6.472;2023-03-19T13:10:10;13.60;99.90
52016;DHT22;38032;53.326;6.472;2023-03-19T13:12:38;13.60;99.90
52016;DHT22;38032;53.326;6.472;2023-03-19T13:15:11;13.50;99.90
52016;DHT22;38032;53.326;6.472;2023-03-19T13:17:54;13.50;99.90
52016;DHT22;38032;53.326;6.472;2023-03-19T13:23:01;13.50;99.90
52016;DHT22;38032;53.326;6.472;2023-03-19T13:25:36;13.40;99.90
52016;DHT22;38032;53.326;6.472;2023-03-19T13:28:09;13.40;99.90
52016;DHT22;38032;53.326;6.472;2023-03-19T13:30:36;13.40;99.90
52016;DHT22;38032;53.326;6.472;2023-03-19T13:33:06;13.30;99.90
52016;DHT22;38032;53.326;6.472;2023-03-19T13:35:48;13.30;99.90
52016;DHT22;38032;53.326;6.472;2023-03-19T13:38:23;13.30;99.90
52016;DHT22;38032;53.326;6.472;2023-03-19T13:40:52;13.20;99.90
52016;DHT22;38032;53.326;6.472;2023-03-19T13:43:38;13.20;99.90
52016;DHT22;38032;53.326;6.472;2023-03-19T13:53:54;13.20;99.90
52016;DHT22;38032;53.326;6.472;2023-03-19T13:56:30;13.20;99.90
52016;DHT22;38032;53.326;6.472;2023-03-19T13:59:20;13.20;99.90
52016;DHT22;38032;53.326;6.472;2023-03-19T14:01:48;13.10;99.90
52016;DHT22;38032;53.326;6.472;2023-03-19T14:04:24;13.10;99.90
52016;DHT22;38032;53.326;6.472;2023-03-19T14:06:55;13.10;99.90
52016;DHT22;38032;53.326;6.472;2023-03-19T14:09:43;13.10;99.90
52016;DHT22;38032;53.326;6.472;2023-03-19T14:12:10;13.10;99.90
52016;DHT22;38032;53.326;6.472;2023-03-19T14:14:41;13.10;99.90
52016;DHT22;38032;53.326;6.472;2023-03-19T14:17:25;13.10;99.90
52016;DHT22;38032;53.326;6.472;2023-03-19T14:19:53;13.10;99.90
52016;DHT22;38032;53.326;6.472;2023-03-19T14:22:30;13.10;99.90
52016;DHT22;38032;53.326;6.472;2023-03-19T14:25:17;13.10;99.90
52016;DHT22;38032;53.326;6.472;2023-03-19T14:27:47;13.10;99.90
52016;DHT22;38032;53.326;6.472;2023-03-19T14:30:23;13.10;99.90
52016;DHT22;38032;53.326;6.472;2023-03-19T14:32:51;13.10;99.90
52016;DHT22;38032;53.326;6.472;2023-03-19T14:35:19;13.10;99.90
52016;DHT22;38032;53.326;6.472;2023-03-19T14:37:48;13.10;99.90
52016;DHT22;38032;53.326;6.472;2023-03-19T14:40:18;13.10;99.90
52016;DHT22;38032;53.326;6.472;2023-03-19T14:42:57;13.10;99.90
52016;DHT22;38032;53.326;6.472;2023-03-19T14:51:12;13.00;99.90
52016;DHT22;38032;53.326;6.472;2023-03-19T14:53:52;13.00;99.90
52016;DHT22;38032;53.326;6.472;2023-03-19T14:56:25;13.00;99.90
52016;DHT22;38032;53.326;6.472;2023-03-19T14:58:56;13.00;99.90
52016;DHT22;38032;53.326;6.472;2023-03-19T15:01:24;12.90;99.90
52016;DHT22;38032;53.326;6.472;2023-03-19T15:03:56;13.00;99.90
52016;DHT22;38032;53.326;6.472;2023-03-19T15:06:23;13.00;99.90
52016;DHT22;38032;53.326;6.472;2023-03-19T15:08:50;13.00;99.90
52016;DHT22;38032;53.326;6.472;2023-03-19T15:11:47;13.00;99.90
52016;DHT22;38032;53.326;6.472;2023-03-19T15:17:13;13.00;99.90
52016;DHT22;38032;53.326;6.472;2023-03-19T15:19:42;13.00;99.90
52016;DHT22;38032;53.326;6.472;2023-03-19T15:22:12;13.00;99.90
52016;DHT22;38032;53.326;6.472;2023-03-19T15:24:40;12.90;99.90
52016;DHT22;38032;53.326;6.472;2023-03-19T15:27:24;13.00;99.90
52016;DHT22;38032;53.326;6.472;2023-03-19T15:29:51;13.00;99.90
52016;DHT22;38032;53.326;6.472;2023-03-19T15:32:38;13.00;99.90
52016;DHT22;38032;53.326;6.472;2023-03-19T15:35:05;13.00;99.90
52016;DHT22;38032;53.326;6.472;2023-03-19T15:37:37;13.00;99.90
52016;DHT22;38032;53.326;6.472;2023-03-19T15:40:07;13.00;99.90
52016;DHT22;38032;53.326;6.472;2023-03-19T15:42:35;13.00;99.90
52016;DHT22;38032;53.326;6.472;2023-03-19T15:45:22;13.00;99.90
52016;DHT22;38032;53.326;6.472;2023-03-19T15:47:59;13.00;99.90
52016;DHT22;38032;53.326;6.472;2023-03-19T15:50:28;13.00;99.90
52016;DHT22;38032;53.326;6.472;2023-03-19T15:53:00;13.00;99.90
52016;DHT22;38032;53.326;6.472;2023-03-19T15:55:28;12.90;99.90
52016;DHT22;38032;53.326;6.472;2023-03-19T15:57:55;12.90;99.90
52016;DHT22;38032;53.326;6.472;2023-03-19T16:00:23;12.90;99.90
52016;DHT22;38032;53.326;6.472;2023-03-19T16:02:50;12.90;99.90
52016;DHT22;38032;53.326;6.472;2023-03-19T16:05:29;12.90;99.90
52016;DHT22;38032;53.326;6.472;2023-03-19T16:07:58;12.80;99.90
52016;DHT22;38032;53.326;6.472;2023-03-19T16:15:52;12.80;99.90
52016;DHT22;38032;53.326;6.472;2023-03-19T16:21:00;12.70;99.90
52016;DHT22;38032;53.326;6.472;2023-03-19T16:23:31;12.60;99.90
52016;DHT22;38032;53.326;6.472;2023-03-19T16:26:04;12.50;99.90
52016;DHT22;38032;53.326;6.472;2023-03-19T16:28:32;12.50;99.90
52016;DHT22;38032;53.326;6.472;2023-03-19T16:30:57;12.50;99.90
52016;DHT22;38032;53.326;6.472;2023-03-19T16:33:25;12.40;99.90
52016;DHT22;38032;53.326;6.472;2023-03-19T16:35:52;12.40;99.90
52016;DHT22;38032;53.326;6.472;2023-03-19T16:38:22;12.40;99.90
52016;DHT22;38032;53.326;6.472;2023-03-19T16:41:22;12.40;99.90
52016;DHT22;38032;53.326;6.472;2023-03-19T16:43:51;12.40;99.90
52016;DHT22;38032;53.326;6.472;2023-03-19T16:46:17;12.40;99.90
52016;DHT22;38032;53.326;6.472;2023-03-19T16:48:43;12.40;99.90